Time,TemperatureF,DewpointF,PressureIn,WindDirection,WindDirectionDegrees,WindSpeedMPH,WindSpeedGustMPH,Humidity,HourlyPrecipIn,Conditions,Clouds,dailyrainin,SolarRadiationWatts/m^2,SoftwareType,DateUTC
2013-08-19 00:04:00,66.8,60.8,30.17,NNE,24,0.0,0.0,81,0.00,RA,,0.00,0.0,WeatherDisplay:10.37,2013-08-19 04:04:00,
2013-08-19 00:14:00,66.8,60.8,30.17,NNE,24,0.0,3.0,81,0.00,OVC,,0.00,0.0,WeatherDisplay:10.37,2013-08-19 04:14:00,
2013-08-19 00:24:00,66.7,61.0,30.17,NNE,24,0.0,1.0,82,0.00,OVC,,0.00,0.0,WeatherDisplay:10.37,2013-08-19 04:24:00,
2013-08-19 00:34:00,66.5,61.2,30.17,NNE,24,0.0,0.0,83,0.00,OVC,,0.00,0.0,WeatherDisplay:10.37,2013-08-19 04:34:00,
2013-08-19 00:44:00,66.2,61.3,30.16,NNE,24,0.0,1.0,84,0.00,OVC,,0.00,0.0,WeatherDisplay:10.37,2013-08-19 04:44:00,
2013-08-19 00:54:00,66.0,61.4,30.16,NNE,24,0.0,1.0,85,0.00,BKN,,0.00,0.0,WeatherDisplay:10.37,2013-08-19 04:54:00,
2013-08-19 01:04:00,65.6,61.0,30.16,NNE,24,0.0,2.0,85,0.00,BKN,,0.00,0.0,WeatherDisplay:10.37,2013-08-19 05:04:00,
2013-08-19 01:14:00,65.1,61.1,30.16,NNE,24,0.0,0.0,87,0.00,BKN,,0.00,0.0,WeatherDisplay:10.37,2013-08-19 05:14:00,
2013-08-19 01:24:00,65.1,61.1,30.16,NNE,24,0.0,0.0,87,0.00,BKN,,0.00,0.0,WeatherDisplay:10.37,2013-08-19 05:24:00,
2013-08-19 01:34:00,64.6,61.0,30.16,NNE,24,0.0,0.0,88,0.00,SCT,,0.00,0.0,WeatherDisplay:10.37,2013-08-19 05:34:00,
2013-08-19 01:44:00,64.6,60.9,30.16,NNE,24,0.0,0.0,88,0.00,BKN,,0.00,0.0,WeatherDisplay:10.37,2013-08-19 05:44:00,
2013-08-19 01:54:00,64.6,61.0,30.16,NNE,24,0.0,0.0,88,0.00,BKN,,0.00,0.0,WeatherDisplay:10.37,2013-08-19 05:54:00,
2013-08-19 02:04:00,64.4,60.8,30.16,NNE,24,0.0,0.0,88,0.00,BKN,,0.00,0.0,WeatherDisplay:10.37,2013-08-19 06:04:00,
2013-08-19 02:14:00,64.0,60.3,30.15,NNE,24,0.0,3.0,88,0.00,SCT,,0.00,0.0,WeatherDisplay:10.37,2013-08-19 06:14:00,
2013-08-19 02:24:00,63.8,60.2,30.15,NNE,24,0.0,0.0,88,0.00,SCT,,0.00,0.0,WeatherDisplay:10.37,2013-08-19 06:24:00,
2013-08-19 02:34:00,63.8,60.1,30.15,NNE,24,0.0,0.0,88,0.00,SCT,,0.00,0.0,WeatherDisplay:10.37,2013-08-19 06:34:00,
2013-08-19 02:44:00,63.7,60.1,30.15,NNE,24,0.0,0.0,88,0.00,SCT,,0.00,0.0,WeatherDisplay:10.37,2013-08-19 06:44:00,
2013-08-19 02:54:00,63.7,60.0,30.15,NNE,24,0.0,0.0,88,0.00,SCT,,0.00,0.0,WeatherDisplay:10.37,2013-08-19 06:54:00,
2013-08-19 03:04:00,63.6,60.0,30.15,NNE,24,0.0,0.0,88,0.00,SCT,,0.00,0.0,WeatherDisplay:10.37,2013-08-19 07:04:00,
2013-08-19 03:14:00,63.5,60.2,30.15,NNE,24,0.0,0.0,89,0.00,BKN,,0.00,0.0,WeatherDisplay:10.37,2013-08-19 07:14:00,
2013-08-19 03:24:00,63.4,60.1,30.15,NNE,24,0.0,0.0,89,0.00,SCT,,0.00,0.0,WeatherDisplay:10.37,2013-08-19 07:24:00,
2013-08-19 03:34:00,63.3,60.0,30.14,NNE,24,0.0,0.0,89,0.00,SCT,,0.00,0.0,WeatherDisplay:10.37,2013-08-19 07:34:00,
2013-08-19 03:54:00,63.1,59.8,30.14,NNE,24,0.0,0.0,89,0.00,SCT,,0.00,0.0,WeatherDisplay:10.37,2013-08-19 07:54:00,
2013-08-19 04:04:00,62.9,59.6,30.14,NNE,24,0.0,0.0,89,0.00,FEW,,0.00,0.0,WeatherDisplay:10.37,2013-08-19 08:04:00,
2013-08-19 04:14:00,62.8,59.5,30.14,NNE,24,0.0,0.0,89,0.00,FEW,,0.00,0.0,WeatherDisplay:10.37,2013-08-19 08:14:00,
2013-08-19 04:34:00,62.4,59.4,30.14,NNE,24,0.0,0.0,90,0.00,SCT,,0.00,0.0,WeatherDisplay:10.37,2013-08-19 08:34:00,
2013-08-19 05:04:00,62.2,59.2,30.13,NNE,24,0.0,0.0,90,0.00,BKN,,0.00,0.0,WeatherDisplay:10.37,2013-08-19 09:04:00,
2013-08-19 05:14:00,62.3,59.6,30.13,NNE,24,0.0,0.0,91,0.00,OVC,,0.00,0.0,WeatherDisplay:10.37,2013-08-19 09:14:00,
2013-08-19 05:24:00,62.3,59.7,30.13,NNE,24,0.0,0.0,91,0.00,BKN,,0.00,0.0,WeatherDisplay:10.37,2013-08-19 09:24:00,
2013-08-19 05:34:00,62.4,59.7,30.13,NNE,24,0.0,0.0,91,0.00,OVC,,0.00,0.0,WeatherDisplay:10.37,2013-08-19 09:34:00,
2013-08-19 05:44:00,62.4,59.8,30.14,NNE,24,0.0,0.0,91,0.00,BKN,,0.00,0.0,WeatherDisplay:10.37,2013-08-19 09:44:00,
2013-08-19 05:54:00,62.4,59.7,30.14,NNE,24,0.0,0.0,91,0.00,BKN,,0.00,0.0,WeatherDisplay:10.37,2013-08-19 09:54:00,
2013-08-19 06:04:00,62.4,59.7,30.14,NNE,24,0.0,0.0,91,0.00,OVC,,0.00,0.0,WeatherDisplay:10.37,2013-08-19 10:04:00,
2013-08-19 06:14:00,62.4,59.7,30.14,NNE,24,0.0,0.0,91,0.00,OVC,,0.00,0.0,WeatherDisplay:10.37,2013-08-19 10:14:00,
2013-08-19 06:24:00,62.3,59.6,30.14,NNE,24,0.0,0.0,91,0.00,OVC,,0.00,0.0,WeatherDisplay:10.37,2013-08-19 10:24:00,
2013-08-19 06:34:00,62.3,59.6,30.14,NNE,24,0.0,0.0,91,0.00,OVC,,0.00,0.0,WeatherDisplay:10.37,2013-08-19 10:34:00,
2013-08-19 06:44:00,62.2,59.6,30.14,NNE,24,0.0,0.0,91,0.00,OVC,,0.00,12.0,WeatherDisplay:10.37,2013-08-19 10:44:00,
2013-08-19 06:54:00,62.2,59.6,30.13,NNE,24,0.0,0.0,91,0.00,BKN,,0.00,26.0,WeatherDisplay:10.37,2013-08-19 10:54:00,
2013-08-19 07:04:00,62.3,59.6,30.13,NNE,24,0.0,0.0,91,0.00,BKN,,0.00,37.0,WeatherDisplay:10.37,2013-08-19 11:04:00,
2013-08-19 07:14:00,62.3,59.7,30.14,NNE,24,0.0,1.0,91,0.00,OVC,,0.00,39.0,WeatherDisplay:10.37,2013-08-19 11:14:00,
2013-08-19 07:24:00,62.5,59.8,30.14,NNE,24,0.0,5.0,91,0.00,OVC,,0.00,40.0,WeatherDisplay:10.37,2013-08-19 11:24:00,
2013-08-19 07:34:00,62.8,60.1,30.14,NNE,24,0.0,5.0,91,0.00,OVC,,0.00,56.0,WeatherDisplay:10.37,2013-08-19 11:34:00,
2013-08-19 07:44:00,63.1,60.4,30.15,NNE,24,0.0,0.0,91,0.00,OVC,,0.00,70.0,WeatherDisplay:10.37,2013-08-19 11:44:00,
2013-08-19 07:54:00,63.8,60.8,30.15,NNE,24,0.0,0.0,90,0.00,BKN,,0.00,98.0,WeatherDisplay:10.37,2013-08-19 11:54:00,
2013-08-19 08:04:00,64.5,61.2,30.15,NNE,24,0.0,0.0,89,0.00,BKN,,0.00,160.0,WeatherDisplay:10.37,2013-08-19 12:04:00,
2013-08-19 08:14:00,65.4,61.7,30.15,NNE,24,0.0,0.0,88,0.00,SCT,,0.00,200.0,WeatherDisplay:10.37,2013-08-19 12:14:00,
2013-08-19 09:14:00,68.9,63.2,30.15,WNW,285,3.0,7.0,82,0.00,OVC,,0.00,183.0,WeatherDisplay:10.37,2013-08-19 13:14:00,
2013-08-19 09:54:00,70.8,63.2,30.13,SW,236,1.0,5.0,77,0.00,SCT,,0.00,394.0,WeatherDisplay:10.37,2013-08-19 13:54:00,
2013-08-19 10:04:00,71.6,62.9,30.13,WSW,240,3.0,7.0,74,0.00,SCT,,0.00,367.0,WeatherDisplay:10.37,2013-08-19 14:04:00,
2013-08-19 10:14:00,71.3,63.0,30.13,SSW,212,1.0,5.0,75,0.00,SCT,,0.00,241.0,WeatherDisplay:10.37,2013-08-19 14:14:00,
2013-08-19 10:34:00,71.5,63.1,30.13,SSE,165,3.0,6.0,75,0.00,SCT,,0.00,329.0,WeatherDisplay:10.37,2013-08-19 14:34:00,
2013-08-19 10:44:00,72.1,63.3,30.13,South,173,0.0,5.0,74,0.00,SCT,,0.00,281.0,WeatherDisplay:10.37,2013-08-19 14:44:00,
2013-08-19 10:54:00,71.7,63.0,30.13,South,179,1.0,6.0,74,0.00,OVC,,0.00,330.0,WeatherDisplay:10.37,2013-08-19 14:54:00,
2013-08-19 11:04:00,71.8,63.1,30.13,SSW,209,0.0,5.0,74,0.00,OVC,,0.00,339.0,WeatherDisplay:10.37,2013-08-19 15:04:00,
2013-08-19 11:14:00,71.9,63.2,30.13,WSW,256,0.0,5.0,74,0.00,SCT,,0.00,269.0,WeatherDisplay:10.37,2013-08-19 15:14:00,
2013-08-19 11:24:00,71.9,62.8,30.12,West,275,2.0,5.0,73,0.00,SCT,,0.00,227.0,WeatherDisplay:10.37,2013-08-19 15:24:00,
2013-08-19 11:34:00,71.9,63.2,30.12,West,281,0.0,5.0,74,0.00,SCT,,0.00,271.0,WeatherDisplay:10.37,2013-08-19 15:34:00,
2013-08-19 11:44:00,72.4,63.6,30.12,North,9,1.0,5.0,74,0.00,SCT,,0.00,276.0,WeatherDisplay:10.37,2013-08-19 15:44:00,
2013-08-19 11:54:00,72.7,63.5,30.12,North,3,0.0,1.0,73,0.00,OVC,,0.00,264.0,WeatherDisplay:10.37,2013-08-19 15:54:00,
2013-08-19 12:04:00,72.1,63.0,30.12,SW,236,2.0,6.0,73,0.00,OVC,,0.00,253.0,WeatherDisplay:10.37,2013-08-19 16:04:00,
2013-08-19 12:24:00,73.0,64.2,30.11,SW,229,0.0,1.0,74,0.00,OVC,,0.00,329.0,WeatherDisplay:10.37,2013-08-19 16:24:00,
2013-08-19 12:34:00,73.1,64.3,30.11,North,350,0.0,7.0,74,0.00,OVC,,0.00,323.0,WeatherDisplay:10.37,2013-08-19 16:34:00,
2013-08-19 12:44:00,73.2,64.4,30.11,NNW,332,0.0,6.0,74,0.00,OVC,,0.00,360.0,WeatherDisplay:10.37,2013-08-19 16:44:00,
2013-08-19 12:54:00,73.5,65.1,30.10,North,3,0.0,3.0,75,0.00,OVC,,0.00,339.0,WeatherDisplay:10.37,2013-08-19 16:54:00,
2013-08-19 13:04:00,73.7,64.9,30.11,West,269,1.0,5.0,74,0.00,OVC,,0.00,334.0,WeatherDisplay:10.37,2013-08-19 17:04:00,
2013-08-19 13:14:00,73.8,65.0,30.10,West,270,0.0,5.0,74,0.00,OVC,,0.00,346.0,WeatherDisplay:10.37,2013-08-19 17:14:00,
2013-08-19 13:24:00,74.0,64.4,30.10,WNW,291,1.0,3.0,72,0.00,OVC,,0.00,388.0,WeatherDisplay:10.37,2013-08-19 17:24:00,
2013-08-19 13:34:00,74.3,64.7,30.10,NW,308,2.0,7.0,72,0.00,BKN,,0.00,526.0,WeatherDisplay:10.37,2013-08-19 17:34:00,
2013-08-19 13:44:00,74.3,64.7,30.10,NNW,330,2.0,6.0,72,0.00,OVC,,0.00,381.0,WeatherDisplay:10.37,2013-08-19 17:44:00,
2013-08-19 13:54:00,74.9,64.9,30.11,WNW,283,1.0,8.0,71,0.00,OVC,,0.00,403.0,WeatherDisplay:10.37,2013-08-19 17:54:00,
2013-08-19 14:14:00,75.1,64.6,30.09,WSW,243,3.0,8.0,70,0.00,SCT,,0.00,346.0,WeatherDisplay:10.37,2013-08-19 18:14:00,
2013-08-19 14:24:00,75.0,65.0,30.09,WSW,254,0.0,1.0,71,0.00,OVC,,0.00,318.0,WeatherDisplay:10.37,2013-08-19 18:24:00,
2013-08-19 14:34:00,75.2,65.6,30.09,West,270,0.0,5.0,72,0.00,SCT,,0.00,294.0,WeatherDisplay:10.37,2013-08-19 18:34:00,
2013-08-19 14:54:00,75.2,65.6,30.09,SSW,199,2.0,7.0,72,0.00,SCT,,0.00,163.0,WeatherDisplay:10.37,2013-08-19 18:54:00,
2013-08-19 15:04:00,75.0,65.4,30.09,SW,216,3.0,8.0,72,0.00,BKN,,0.00,181.0,WeatherDisplay:10.37,2013-08-19 19:04:00,
2013-08-19 15:14:00,75.0,65.8,30.08,SW,225,0.0,6.0,73,0.00,BKN,,0.00,336.0,WeatherDisplay:10.37,2013-08-19 19:14:00,
2013-08-19 15:54:00,76.0,65.9,30.07,SW,228,2.0,8.0,71,0.00,OVC,,0.00,323.0,WeatherDisplay:10.37,2013-08-19 19:54:00,
2013-08-19 16:04:00,76.5,66.0,30.07,WNW,291,2.0,5.0,70,0.00,OVC,,0.00,202.0,WeatherDisplay:10.37,2013-08-19 20:04:00,
2013-08-19 16:14:00,75.9,65.8,30.07,SSW,200,0.0,5.0,71,0.00,OVC,,0.00,207.0,WeatherDisplay:10.37,2013-08-19 20:14:00,
2013-08-19 16:24:00,76.0,65.9,30.07,SSW,202,0.0,5.0,71,0.00,FEW,,0.00,211.0,WeatherDisplay:10.37,2013-08-19 20:24:00,
2013-08-19 16:34:00,75.8,65.7,30.07,SSW,212,2.0,7.0,71,0.00,FEW,,0.00,253.0,WeatherDisplay:10.37,2013-08-19 20:34:00,
2013-08-19 16:44:00,76.1,66.4,30.07,WSW,248,0.0,1.0,72,0.00,OVC,,0.00,248.0,WeatherDisplay:10.37,2013-08-19 20:44:00,
2013-08-19 16:54:00,75.9,65.8,30.07,WSW,248,2.0,7.0,71,0.00,FEW,,0.00,211.0,WeatherDisplay:10.37,2013-08-19 20:54:00,
2013-08-19 17:14:00,76.6,66.9,30.07,West,271,0.0,9.0,72,0.00,BKN,,0.00,264.0,WeatherDisplay:10.37,2013-08-19 21:14:00,
2013-08-19 17:24:00,76.2,66.6,30.07,WSW,246,3.0,5.0,72,0.00,BKN,,0.00,193.0,WeatherDisplay:10.37,2013-08-19 21:24:00,
2013-08-19 17:34:00,76.0,65.9,30.07,WSW,255,0.0,3.0,71,0.00,BKN,,0.00,181.0,WeatherDisplay:10.37,2013-08-19 21:34:00,
2013-08-19 17:44:00,75.7,66.0,30.07,WSW,249,1.0,3.0,72,0.00,BKN,,0.00,153.0,WeatherDisplay:10.37,2013-08-19 21:44:00,
2013-08-19 17:54:00,75.7,66.4,30.06,SW,236,0.0,3.0,73,0.00,BKN,,0.00,148.0,WeatherDisplay:10.37,2013-08-19 21:54:00,
2013-08-19 18:04:00,75.4,66.2,30.06,WSW,237,0.0,3.0,73,0.00,BKN,,0.00,174.0,WeatherDisplay:10.37,2013-08-19 22:04:00,
2013-08-19 18:14:00,75.5,66.2,30.06,ESE,118,0.0,5.0,73,0.00,BKN,,0.00,178.0,WeatherDisplay:10.37,2013-08-19 22:14:00,
2013-08-19 18:24:00,75.7,66.4,30.06,ESE,112,1.0,4.0,73,0.00,BKN,,0.00,153.0,WeatherDisplay:10.37,2013-08-19 22:24:00,
2013-08-19 18:34:00,75.3,66.4,30.07,SSW,194,0.0,6.0,74,0.00,BKN,,0.00,120.0,WeatherDisplay:10.37,2013-08-19 22:34:00,
2013-08-19 18:44:00,75.1,66.3,30.07,SSW,193,0.0,5.0,74,0.00,BKN,,0.00,100.0,WeatherDisplay:10.37,2013-08-19 22:44:00,
2013-08-19 18:54:00,75.2,66.7,30.07,SSW,197,0.0,0.0,75,0.00,CLR,,0.00,84.0,WeatherDisplay:10.37,2013-08-19 22:54:00,
2013-08-19 19:34:00,74.2,66.5,30.06,SW,221,0.0,6.0,77,0.00,BKN,,0.00,37.0,WeatherDisplay:10.37,2013-08-19 23:34:00,
2013-08-19 19:54:00,73.4,66.1,30.06,SW,227,0.0,5.0,78,0.00,SCT,,0.00,12.0,WeatherDisplay:10.37,2013-08-19 23:54:00,
2013-08-19 20:04:00,72.7,65.8,30.06,SW,227,0.0,0.0,79,0.00,BKN,,0.00,7.0,WeatherDisplay:10.37,2013-08-20 00:04:00,
2013-08-19 20:24:00,71.4,65.6,30.06,SW,227,1.0,9.0,82,0.00,SCT,,0.00,0.0,WeatherDisplay:10.37,2013-08-20 00:24:00,
2013-08-19 20:34:00,71.1,65.7,30.06,SW,226,0.0,2.0,83,0.00,SCT,,0.00,0.0,WeatherDisplay:10.37,2013-08-20 00:34:00,
2013-08-19 21:04:00,70.4,65.3,30.07,SW,227,0.0,1.0,84,0.00,FEW,,0.00,0.0,WeatherDisplay:10.37,2013-08-20 01:04:00,
2013-08-19 21:14:00,70.3,65.2,30.08,SW,227,1.0,5.0,84,0.00,FEW,,0.00,0.0,WeatherDisplay:10.37,2013-08-20 01:14:00,
2013-08-19 21:24:00,70.2,65.1,30.08,SW,227,0.0,1.0,84,0.00,FEW,,0.00,0.0,WeatherDisplay:10.37,2013-08-20 01:24:00,
2013-08-19 21:44:00,69.5,64.8,30.09,SW,227,0.0,1.0,85,0.00,FEW,,0.00,0.0,WeatherDisplay:10.37,2013-08-20 01:44:00,
2013-08-19 22:04:00,69.0,65.0,30.09,SW,227,0.0,0.0,87,0.00,SCT,,0.00,0.0,WeatherDisplay:10.37,2013-08-20 02:04:00,
2013-08-19 22:14:00,68.7,64.7,30.09,SW,227,0.0,0.0,87,0.00,SCT,,0.00,0.0,WeatherDisplay:10.37,2013-08-20 02:14:00,
2013-08-19 22:24:00,68.4,64.8,30.09,SW,227,0.0,0.0,88,0.00,SCT,,0.00,0.0,WeatherDisplay:10.37,2013-08-20 02:24:00,
2013-08-19 22:34:00,68.3,64.6,30.09,SW,227,0.0,0.0,88,0.00,SCT,,0.00,0.0,WeatherDisplay:10.37,2013-08-20 02:34:00,
2013-08-19 22:44:00,68.0,64.3,30.09,SW,227,0.0,0.0,88,0.00,SCT,,0.00,0.0,WeatherDisplay:10.37,2013-08-20 02:44:00,
2013-08-19 22:54:00,67.8,64.4,30.09,SW,227,0.0,0.0,89,0.00,BKN,,0.00,0.0,WeatherDisplay:10.37,2013-08-20 02:54:00,
2013-08-19 23:04:00,67.5,64.1,30.09,SW,227,0.0,0.0,89,0.00,BKN,,0.00,0.0,WeatherDisplay:10.37,2013-08-20 03:04:00,
2013-08-19 23:24:00,67.1,64.1,30.10,SW,227,0.0,9.0,90,0.00,BKN,,0.00,0.0,WeatherDisplay:10.37,2013-08-20 03:24:00,